IBS17FB LEMD-LEIB
Flight info
| Callsign | IBS17FB |
|---|---|
| Flight time | N/A |
| Altitude | 30000 |
| Route | NANDO T257 FENXE/N0431F320 T257 LASPO Z224 VARUT |
| Aircraft | A320/M-SDE3FGHIRWY/LB1 |
Departure
| Time | 2026-05-05 20:15 |
|---|---|
| Airport | Adolfo Suárez Madrid–Barajas Airport (LEMD) |
Arrival
| Time | N/A |
|---|---|
| Airport | Ibiza Airport (LEIB) |
| Time | Latitude | Longitude | Altitude | Speed | Heading |
|---|---|---|---|---|---|
| 2026-05-05 20:06 | 40.48800 | -3.58987 | 2032 ft | 0 kts | 270° |
| 2026-05-05 20:08 | 40.48800 | -3.58968 | 2032 ft | 2 kts | 270° |
| 2026-05-05 20:08 | 40.48800 | -3.58948 | 2031 ft | 2 kts | 270° |
| 2026-05-05 20:08 | 40.48800 | -3.58933 | 2031 ft | 1 kts | 270° |
| 2026-05-05 20:09 | 40.48804 | -3.58911 | 2030 ft | 2 kts | 228° |
| 2026-05-05 20:09 | 40.48819 | -3.58899 | 2030 ft | 2 kts | 189° |
| 2026-05-05 20:09 | 40.48827 | -3.58898 | 2030 ft | 1 kts | 174° |
| 2026-05-05 20:09 | 40.48831 | -3.58899 | 2030 ft | 0 kts | 178° |
| 2026-05-05 20:11 | 40.48821 | -3.58898 | 2030 ft | 4 kts | 179° |
| 2026-05-05 20:11 | 40.48771 | -3.58880 | 2030 ft | 9 kts | 127° |
| 2026-05-05 20:11 | 40.48762 | -3.58774 | 2028 ft | 13 kts | 91° |
| 2026-05-05 20:12 | 40.48762 | -3.58614 | 2024 ft | 19 kts | 88° |
| 2026-05-05 20:12 | 40.48763 | -3.58410 | 2020 ft | 23 kts | 90° |
| 2026-05-05 20:12 | 40.48762 | -3.58153 | 2012 ft | 26 kts | 91° |
| 2026-05-05 20:12 | 40.48882 | -3.58057 | 2010 ft | 21 kts | 358° |
| 2026-05-05 20:13 | 40.49042 | -3.58060 | 2008 ft | 21 kts | 359° |
| 2026-05-05 20:13 | 40.49195 | -3.58060 | 2007 ft | 20 kts | 3° |
| 2026-05-05 20:13 | 40.49245 | -3.57895 | 2004 ft | 20 kts | 89° |
| 2026-05-05 20:13 | 40.49245 | -3.57680 | 1997 ft | 23 kts | 88° |
| 2026-05-05 20:14 | 40.49331 | -3.57481 | 1989 ft | 25 kts | 35° |
| 2026-05-05 20:14 | 40.49519 | -3.57464 | 1988 ft | 30 kts | 359° |
| 2026-05-05 20:14 | 40.50016 | -3.57468 | 1988 ft | 102 kts | 359° |
| 2026-05-05 20:14 | 40.50997 | -3.57472 | 1991 ft | 159 kts | 359° |
| 2026-05-05 20:15 | 40.52251 | -3.57460 | 2444 ft | 168 kts | 357° |
| 2026-05-05 20:15 | 40.53493 | -3.57472 | 3117 ft | 170 kts | 356° |
| 2026-05-05 20:15 | 40.54769 | -3.57491 | 3801 ft | 172 kts | 359° |
| 2026-05-05 20:15 | 40.56054 | -3.57298 | 4260 ft | 185 kts | 10° |
| 2026-05-05 20:16 | 40.57433 | -3.56797 | 4669 ft | 201 kts | 14° |
| 2026-05-05 20:16 | 40.58930 | -3.56191 | 5007 ft | 224 kts | 14° |
| 2026-05-05 20:16 | 40.60582 | -3.55512 | 5649 ft | 234 kts | 14° |
| 2026-05-05 20:16 | 40.62268 | -3.54821 | 6469 ft | 237 kts | 13° |
| 2026-05-05 20:17 | 40.63999 | -3.54289 | 7271 ft | 239 kts | 6° |
| 2026-05-05 20:17 | 40.65785 | -3.54049 | 8063 ft | 242 kts | 2° |
| 2026-05-05 20:17 | 40.67619 | -3.53887 | 8884 ft | 245 kts | 1° |
| 2026-05-05 20:17 | 40.69457 | -3.53651 | 9686 ft | 249 kts | 13° |
| 2026-05-05 20:18 | 40.71076 | -3.52397 | 10452 ft | 258 kts | 46° |
| 2026-05-05 20:18 | 40.72243 | -3.50258 | 11054 ft | 272 kts | 54° |
| 2026-05-05 20:18 | 40.73399 | -3.47920 | 11612 ft | 287 kts | 54° |
| 2026-05-05 20:18 | 40.74601 | -3.45528 | 12333 ft | 293 kts | 54° |
| 2026-05-05 20:19 | 40.75848 | -3.43073 | 13116 ft | 297 kts | 56° |
| 2026-05-05 20:19 | 40.76599 | -3.40303 | 13873 ft | 305 kts | 85° |
| 2026-05-05 20:19 | 40.76194 | -3.37299 | 14644 ft | 309 kts | 116° |
| 2026-05-05 20:19 | 40.74868 | -3.34771 | 15372 ft | 312 kts | 130° |
| 2026-05-05 20:20 | 40.73431 | -3.32430 | 16001 ft | 319 kts | 130° |
| 2026-05-05 20:20 | 40.72203 | -3.30395 | 16562 ft | 323 kts | 129° |
| 2026-05-05 20:20 | 40.70555 | -3.27927 | 17263 ft | 326 kts | 141° |
| 2026-05-05 20:20 | 40.68499 | -3.26139 | 17872 ft | 329 kts | 158° |
| 2026-05-05 20:21 | 40.66125 | -3.24830 | 18203 ft | 343 kts | 162° |
| 2026-05-05 20:21 | 40.63629 | -3.23570 | 18490 ft | 358 kts | 163° |
| 2026-05-05 20:21 | 40.61036 | -3.22251 | 18789 ft | 373 kts | 163° |
| 2026-05-05 20:21 | 40.58329 | -3.20854 | 19099 ft | 388 kts | 163° |
| 2026-05-05 20:22 | 40.55531 | -3.19391 | 19496 ft | 398 kts | 163° |
| 2026-05-05 20:22 | 40.52675 | -3.17885 | 20064 ft | 403 kts | 163° |
| 2026-05-05 20:22 | 40.49789 | -3.16358 | 20624 ft | 407 kts | 164° |
| 2026-05-05 20:22 | 40.46882 | -3.14826 | 21195 ft | 411 kts | 164° |
| 2026-05-05 20:23 | 40.43919 | -3.13269 | 21752 ft | 415 kts | 165° |
| 2026-05-05 20:23 | 40.40988 | -3.11444 | 22304 ft | 425 kts | 157° |
| 2026-05-05 20:23 | 40.38258 | -3.09088 | 22841 ft | 435 kts | 148° |
| 2026-05-05 20:23 | 40.35669 | -3.06257 | 23314 ft | 443 kts | 145° |
| 2026-05-05 20:24 | 40.33099 | -3.03287 | 23801 ft | 448 kts | 144° |
| 2026-05-05 20:24 | 40.30526 | -3.00302 | 24331 ft | 450 kts | 145° |
| 2026-05-05 20:24 | 40.27893 | -2.97277 | 24876 ft | 453 kts | 145° |
| 2026-05-05 20:24 | 40.25259 | -2.94271 | 25382 ft | 455 kts | 145° |
| 2026-05-05 20:25 | 40.22579 | -2.91226 | 25924 ft | 456 kts | 145° |
| 2026-05-05 20:25 | 40.19895 | -2.88179 | 26597 ft | 454 kts | 146° |
| 2026-05-05 20:25 | 40.17281 | -2.85217 | 27235 ft | 452 kts | 146° |
| 2026-05-05 20:25 | 40.14740 | -2.82082 | 27762 ft | 460 kts | 136° |
| 2026-05-05 20:26 | 40.12799 | -2.78251 | 28415 ft | 467 kts | 120° |
| 2026-05-05 20:26 | 40.11585 | -2.73982 | 29152 ft | 466 kts | 110° |
| 2026-05-05 20:26 | 40.10616 | -2.69546 | 29607 ft | 469 kts | 108° |
| 2026-05-05 20:26 | 40.09688 | -2.65132 | 29927 ft | 473 kts | 108° |
| 2026-05-05 20:27 | 40.08730 | -2.60673 | 29967 ft | 474 kts | 109° |
| 2026-05-05 20:27 | 40.06676 | -2.51475 | 29984 ft | 473 kts | 109° |
| 2026-05-05 20:28 | 40.04641 | -2.42495 | 30001 ft | 472 kts | 109° |
| 2026-05-05 20:28 | 40.02578 | -2.33479 | 29999 ft | 472 kts | 110° |
| 2026-05-05 20:29 | 40.00526 | -2.24514 | 29991 ft | 472 kts | 110° |
| 2026-05-05 20:29 | 39.98412 | -2.15460 | 29993 ft | 472 kts | 112° |
| 2026-05-05 20:30 | 39.95661 | -2.06836 | 29989 ft | 468 kts | 122° |
| 2026-05-05 20:30 | 39.91973 | -1.98911 | 29974 ft | 460 kts | 131° |
| 2026-05-05 20:31 | 39.88073 | -1.91670 | 29982 ft | 462 kts | 128° |
| 2026-05-05 20:31 | 39.84981 | -1.84742 | 29971 ft | 464 kts | 124° |
| 2026-05-05 20:32 | 39.81802 | -1.77307 | 29975 ft | 465 kts | 124° |
| 2026-05-05 20:32 | 39.78313 | -1.69148 | 29971 ft | 485 kts | 124° |
| 2026-05-05 20:32 | 39.76529 | -1.64981 | 29978 ft | 496 kts | 124° |
| 2026-05-05 20:33 | 39.74665 | -1.60639 | 29980 ft | 502 kts | 124° |
| 2026-05-05 20:33 | 39.70927 | -1.51941 | 29971 ft | 506 kts | 124° |
| 2026-05-05 20:34 | 39.67210 | -1.43351 | 29964 ft | 505 kts | 124° |
| 2026-05-05 20:34 | 39.63499 | -1.34789 | 29966 ft | 505 kts | 124° |
| 2026-05-05 20:35 | 39.59954 | -1.26594 | 29978 ft | 505 kts | 125° |
| 2026-05-05 20:35 | 39.56235 | -1.18029 | 29978 ft | 505 kts | 125° |
| 2026-05-05 20:36 | 39.52618 | -1.09734 | 29980 ft | 505 kts | 125° |
| 2026-05-05 20:36 | 39.48973 | -1.01402 | 29996 ft | 505 kts | 125° |
| 2026-05-05 20:37 | 39.45285 | -0.93002 | 29978 ft | 504 kts | 125° |
| 2026-05-05 20:37 | 39.41549 | -0.84511 | 29959 ft | 504 kts | 126° |
| 2026-05-05 20:38 | 39.37819 | -0.76061 | 29954 ft | 504 kts | 125° |
| 2026-05-05 20:38 | 39.34111 | -0.67671 | 29945 ft | 503 kts | 125° |
| 2026-05-05 20:39 | 39.30396 | -0.59169 | 29929 ft | 505 kts | 123° |
| 2026-05-05 20:39 | 39.27430 | -0.50316 | 29913 ft | 511 kts | 113° |
| 2026-05-05 20:40 | 39.25393 | -0.41179 | 29918 ft | 513 kts | 108° |
| 2026-05-05 20:40 | 39.23560 | -0.32175 | 29912 ft | 513 kts | 109° |
| 2026-05-05 20:41 | 39.21701 | -0.23165 | 29898 ft | 512 kts | 109° |
| 2026-05-05 20:41 | 39.19843 | -0.14305 | 29902 ft | 513 kts | 110° |
| 2026-05-05 20:42 | 39.17960 | -0.05405 | 29896 ft | 512 kts | 109° |
| 2026-05-05 20:42 | 39.16106 | 0.03313 | 29890 ft | 513 kts | 109° |
| 2026-05-05 20:43 | 39.14203 | 0.12248 | 29501 ft | 505 kts | 109° |
| 2026-05-05 20:43 | 39.13269 | 0.16538 | 28882 ft | 501 kts | 111° |
| 2026-05-05 20:43 | 39.12159 | 0.20745 | 28234 ft | 495 kts | 115° |
| 2026-05-05 20:43 | 39.11103 | 0.24978 | 27626 ft | 496 kts | 105° |
| 2026-05-05 20:44 | 39.10687 | 0.29535 | 27049 ft | 495 kts | 95° |
| 2026-05-05 20:44 | 39.10586 | 0.33962 | 26519 ft | 491 kts | 93° |
| 2026-05-05 20:44 | 39.10516 | 0.38361 | 25963 ft | 486 kts | 94° |
| 2026-05-05 20:44 | 39.10403 | 0.42689 | 25416 ft | 482 kts | 94° |
| 2026-05-05 20:45 | 39.10045 | 0.51347 | 24334 ft | 473 kts | 95° |
| 2026-05-05 20:45 | 39.09829 | 0.55622 | 23825 ft | 468 kts | 96° |
| 2026-05-05 20:45 | 39.09606 | 0.59799 | 23330 ft | 463 kts | 96° |
| 2026-05-05 20:46 | 39.09376 | 0.64004 | 22787 ft | 459 kts | 96° |
| 2026-05-05 20:46 | 39.09153 | 0.68085 | 22251 ft | 456 kts | 97° |
| 2026-05-05 20:46 | 39.08925 | 0.72183 | 21727 ft | 452 kts | 97° |
| 2026-05-05 20:46 | 39.08695 | 0.76282 | 21180 ft | 448 kts | 97° |
| 2026-05-05 20:47 | 39.08465 | 0.80370 | 20632 ft | 445 kts | 97° |
| 2026-05-05 20:47 | 39.08235 | 0.84414 | 20106 ft | 441 kts | 97° |
| 2026-05-05 20:47 | 39.08009 | 0.88379 | 19604 ft | 436 kts | 97° |
| 2026-05-05 20:47 | 39.07782 | 0.92332 | 19052 ft | 433 kts | 97° |
| 2026-05-05 20:48 | 39.07552 | 0.96283 | 18539 ft | 429 kts | 97° |
| 2026-05-05 20:48 | 39.07330 | 1.00079 | 18053 ft | 425 kts | 97° |
| 2026-05-05 20:48 | 39.07105 | 1.03903 | 17554 ft | 421 kts | 97° |
| 2026-05-05 20:48 | 39.06881 | 1.07670 | 17068 ft | 417 kts | 97° |
| 2026-05-05 20:49 | 39.06646 | 1.11606 | 16564 ft | 413 kts | 97° |
| 2026-05-05 20:49 | 39.06419 | 1.15412 | 16062 ft | 409 kts | 97° |
| 2026-05-05 20:49 | 39.06195 | 1.19135 | 15577 ft | 405 kts | 97° |
| 2026-05-05 20:49 | 39.05967 | 1.22921 | 15081 ft | 401 kts | 97° |
| 2026-05-05 20:50 | 39.05738 | 1.26702 | 14584 ft | 397 kts | 96° |
| 2026-05-05 20:50 | 39.05510 | 1.30434 | 14075 ft | 393 kts | 96° |
| 2026-05-05 20:50 | 39.05281 | 1.34188 | 13566 ft | 389 kts | 96° |
| 2026-05-05 20:50 | 39.05053 | 1.37902 | 13072 ft | 385 kts | 96° |
| 2026-05-05 20:51 | 39.04829 | 1.41489 | 12608 ft | 380 kts | 96° |
| 2026-05-05 20:51 | 39.04608 | 1.45041 | 12143 ft | 376 kts | 96° |
| 2026-05-05 20:51 | 39.04385 | 1.48597 | 11670 ft | 371 kts | 96° |
| 2026-05-05 20:51 | 39.04167 | 1.52066 | 11199 ft | 367 kts | 95° |
| 2026-05-05 20:52 | 39.03957 | 1.55381 | 10751 ft | 363 kts | 95° |
| 2026-05-05 20:52 | 39.03746 | 1.58701 | 10297 ft | 359 kts | 95° |
| 2026-05-05 20:52 | 39.03539 | 1.61944 | 9823 ft | 352 kts | 95° |
| 2026-05-05 20:52 | 39.03337 | 1.65145 | 9082 ft | 343 kts | 95° |
| 2026-05-05 20:53 | 39.03144 | 1.68165 | 8594 ft | 325 kts | 95° |
| 2026-05-05 20:53 | 39.03019 | 1.70103 | 8312 ft | 313 kts | 95° |